sensor_id;sensor_type;location;lat;lon;timestamp;P1;durP1;ratioP1;P2;durP2;ratioP2
12232;SDS011;6179;51.748;8.728;2023-07-31T00:00:14;0.40;;;0.40;;
12232;SDS011;6179;51.748;8.728;2023-07-31T00:06:15;11.93;;;0.70;;
12232;SDS011;6179;51.748;8.728;2023-07-31T00:12:16;1.00;;;0.70;;
12232;SDS011;6179;51.748;8.728;2023-07-31T00:18:16;0.83;;;0.70;;
12232;SDS011;6179;51.748;8.728;2023-07-31T00:24:17;4.60;;;0.93;;
12232;SDS011;6179;51.748;8.728;2023-07-31T00:30:17;3.53;;;1.10;;
12232;SDS011;6179;51.748;8.728;2023-07-31T00:36:22;45.00;;;1.37;;
12232;SDS011;6179;51.748;8.728;2023-07-31T00:42:23;1.60;;;0.67;;
12232;SDS011;6179;51.748;8.728;2023-07-31T00:48:24;0.70;;;0.70;;
12232;SDS011;6179;51.748;8.728;2023-07-31T00:54:25;2.57;;;1.27;;
12232;SDS011;6179;51.748;8.728;2023-07-31T01:00:26;6.20;;;1.20;;
12232;SDS011;6179;51.748;8.728;2023-07-31T01:06:33;3.30;;;1.10;;
12232;SDS011;6179;51.748;8.728;2023-07-31T01:12:41;5.50;;;1.73;;
12232;SDS011;6179;51.748;8.728;2023-07-31T01:18:43;1.73;;;0.80;;
12232;SDS011;6179;51.748;8.728;2023-07-31T01:31:18;1.30;;;1.10;;
12232;SDS011;6179;51.748;8.728;2023-07-31T01:37:22;0.70;;;0.70;;
12232;SDS011;6179;51.748;8.728;2023-07-31T01:43:29;5.43;;;1.20;;
12232;SDS011;6179;51.748;8.728;2023-07-31T01:49:29;4.37;;;0.87;;
12232;SDS011;6179;51.748;8.728;2023-07-31T01:55:30;0.73;;;0.60;;
12232;SDS011;6179;51.748;8.728;2023-07-31T02:01:30;1.40;;;0.50;;
12232;SDS011;6179;51.748;8.728;2023-07-31T02:07:31;6.50;;;0.87;;
12232;SDS011;6179;51.748;8.728;2023-07-31T02:13:31;0.80;;;0.57;;
12232;SDS011;6179;51.748;8.728;2023-07-31T02:19:32;1.13;;;0.60;;
12232;SDS011;6179;51.748;8.728;2023-07-31T02:25:33;0.60;;;0.60;;
12232;SDS011;6179;51.748;8.728;2023-07-31T02:31:33;0.60;;;0.50;;
12232;SDS011;6179;51.748;8.728;2023-07-31T02:37:34;0.70;;;0.60;;
12232;SDS011;6179;51.748;8.728;2023-07-31T02:43:34;1.40;;;0.80;;
12232;SDS011;6179;51.748;8.728;2023-07-31T02:49:35;1.83;;;0.47;;
12232;SDS011;6179;51.748;8.728;2023-07-31T02:55:35;1.93;;;0.60;;
12232;SDS011;6179;51.748;8.728;2023-07-31T03:01:36;1.23;;;0.73;;
12232;SDS011;6179;51.748;8.728;2023-07-31T03:07:37;1.93;;;1.03;;
12232;SDS011;6179;51.748;8.728;2023-07-31T03:13:37;6.53;;;2.10;;
12232;SDS011;6179;51.748;8.728;2023-07-31T03:19:38;7.60;;;2.10;;
12232;SDS011;6179;51.748;8.728;2023-07-31T03:25:39;4.20;;;1.97;;
12232;SDS011;6179;51.748;8.728;2023-07-31T03:31:41;7.83;;;2.00;;
12232;SDS011;6179;51.748;8.728;2023-07-31T03:37:42;5.63;;;2.70;;
12232;SDS011;6179;51.748;8.728;2023-07-31T03:43:42;8.73;;;2.77;;
12232;SDS011;6179;51.748;8.728;2023-07-31T03:49:43;13.80;;;2.13;;
12232;SDS011;6179;51.748;8.728;2023-07-31T03:55:43;11.43;;;2.10;;
12232;SDS011;6179;51.748;8.728;2023-07-31T04:01:44;11.33;;;1.90;;
12232;SDS011;6179;51.748;8.728;2023-07-31T04:07:45;2.57;;;1.10;;
12232;SDS011;6179;51.748;8.728;2023-07-31T04:13:45;8.20;;;1.60;;
12232;SDS011;6179;51.748;8.728;2023-07-31T04:19:48;10.50;;;2.27;;
12232;SDS011;6179;51.748;8.728;2023-07-31T04:25:49;4.00;;;1.77;;
12232;SDS011;6179;51.748;8.728;2023-07-31T04:31:50;11.20;;;1.80;;
12232;SDS011;6179;51.748;8.728;2023-07-31T04:37:50;4.73;;;2.63;;
12232;SDS011;6179;51.748;8.728;2023-07-31T04:43:51;5.23;;;1.70;;
12232;SDS011;6179;51.748;8.728;2023-07-31T04:49:51;5.43;;;1.67;;
12232;SDS011;6179;51.748;8.728;2023-07-31T04:55:52;6.23;;;1.77;;
12232;SDS011;6179;51.748;8.728;2023-07-31T05:01:53;3.60;;;2.03;;
12232;SDS011;6179;51.748;8.728;2023-07-31T05:07:53;10.60;;;2.30;;
12232;SDS011;6179;51.748;8.728;2023-07-31T05:13:54;6.90;;;1.63;;
12232;SDS011;6179;51.748;8.728;2023-07-31T05:19:54;12.50;;;1.83;;
12232;SDS011;6179;51.748;8.728;2023-07-31T05:25:55;5.53;;;1.20;;
12232;SDS011;6179;51.748;8.728;2023-07-31T05:32:02;13.43;;;3.10;;
12232;SDS011;6179;51.748;8.728;2023-07-31T05:38:03;7.43;;;2.30;;
12232;SDS011;6179;51.748;8.728;2023-07-31T05:44:03;9.00;;;2.03;;
12232;SDS011;6179;51.748;8.728;2023-07-31T05:50:04;5.10;;;1.60;;
12232;SDS011;6179;51.748;8.728;2023-07-31T05:56:05;11.03;;;1.53;;
12232;SDS011;6179;51.748;8.728;2023-07-31T06:02:05;5.20;;;1.30;;
12232;SDS011;6179;51.748;8.728;2023-07-31T06:08:06;8.80;;;1.23;;
12232;SDS011;6179;51.748;8.728;2023-07-31T06:14:07;12.90;;;2.60;;
12232;SDS011;6179;51.748;8.728;2023-07-31T06:20:07;4.20;;;1.87;;
12232;SDS011;6179;51.748;8.728;2023-07-31T06:26:08;6.27;;;2.57;;
12232;SDS011;6179;51.748;8.728;2023-07-31T06:32:09;3.80;;;1.33;;
12232;SDS011;6179;51.748;8.728;2023-07-31T06:38:09;6.30;;;2.33;;
12232;SDS011;6179;51.748;8.728;2023-07-31T06:44:10;6.80;;;1.97;;
12232;SDS011;6179;51.748;8.728;2023-07-31T06:50:11;9.40;;;1.83;;
12232;SDS011;6179;51.748;8.728;2023-07-31T06:56:11;10.23;;;2.57;;
12232;SDS011;6179;51.748;8.728;2023-07-31T07:02:12;3.50;;;1.30;;
12232;SDS011;6179;51.748;8.728;2023-07-31T07:08:13;12.80;;;2.10;;
12232;SDS011;6179;51.748;8.728;2023-07-31T07:14:13;12.40;;;4.80;;
12232;SDS011;6179;51.748;8.728;2023-07-31T07:20:14;7.63;;;2.63;;
12232;SDS011;6179;51.748;8.728;2023-07-31T07:26:15;5.93;;;1.33;;
12232;SDS011;6179;51.748;8.728;2023-07-31T07:32:15;11.30;;;1.90;;
12232;SDS011;6179;51.748;8.728;2023-07-31T07:38:17;5.70;;;1.87;;
12232;SDS011;6179;51.748;8.728;2023-07-31T07:44:19;8.67;;;2.60;;
12232;SDS011;6179;51.748;8.728;2023-07-31T07:50:19;5.10;;;1.97;;
12232;SDS011;6179;51.748;8.728;2023-07-31T07:56:20;6.17;;;2.10;;
12232;SDS011;6179;51.748;8.728;2023-07-31T08:02:21;7.87;;;2.27;;
12232;SDS011;6179;51.748;8.728;2023-07-31T08:08:22;12.30;;;2.50;;
12232;SDS011;6179;51.748;8.728;2023-07-31T08:14:23;8.53;;;3.47;;
12232;SDS011;6179;51.748;8.728;2023-07-31T08:20:23;5.37;;;2.73;;
12232;SDS011;6179;51.748;8.728;2023-07-31T08:26:24;7.20;;;2.83;;
12232;SDS011;6179;51.748;8.728;2023-07-31T08:32:24;11.30;;;3.13;;
12232;SDS011;6179;51.748;8.728;2023-07-31T08:38:25;8.30;;;1.80;;
12232;SDS011;6179;51.748;8.728;2023-07-31T08:44:26;7.27;;;3.07;;
12232;SDS011;6179;51.748;8.728;2023-07-31T08:50:27;3.60;;;2.10;;
12232;SDS011;6179;51.748;8.728;2023-07-31T08:56:28;5.60;;;2.77;;
12232;SDS011;6179;51.748;8.728;2023-07-31T09:02:31;3.73;;;2.23;;
12232;SDS011;6179;51.748;8.728;2023-07-31T09:08:46;7.67;;;3.20;;
12232;SDS011;6179;51.748;8.728;2023-07-31T09:14:47;19.37;;;3.67;;
12232;SDS011;6179;51.748;8.728;2023-07-31T09:21:06;3.37;;;1.47;;
12232;SDS011;6179;51.748;8.728;2023-07-31T09:27:07;4.00;;;1.90;;
12232;SDS011;6179;51.748;8.728;2023-07-31T09:33:09;10.33;;;3.57;;
12232;SDS011;6179;51.748;8.728;2023-07-31T09:39:10;5.57;;;1.93;;
12232;SDS011;6179;51.748;8.728;2023-07-31T09:45:11;5.30;;;1.93;;
12232;SDS011;6179;51.748;8.728;2023-07-31T09:51:12;3.90;;;1.27;;
12232;SDS011;6179;51.748;8.728;2023-07-31T09:57:13;5.73;;;2.87;;
12232;SDS011;6179;51.748;8.728;2023-07-31T10:03:17;4.20;;;1.70;;
12232;SDS011;6179;51.748;8.728;2023-07-31T10:09:18;2.80;;;1.60;;
12232;SDS011;6179;51.748;8.728;2023-07-31T10:15:20;1.37;;;1.13;;
12232;SDS011;6179;51.748;8.728;2023-07-31T10:21:20;12.57;;;1.77;;
12232;SDS011;6179;51.748;8.728;2023-07-31T10:27:21;2.20;;;0.90;;
12232;SDS011;6179;51.748;8.728;2023-07-31T10:33:22;1.13;;;0.70;;
12232;SDS011;6179;51.748;8.728;2023-07-31T10:39:35;4.50;;;1.00;;
12232;SDS011;6179;51.748;8.728;2023-07-31T10:45:39;1.67;;;1.30;;
12232;SDS011;6179;51.748;8.728;2023-07-31T10:51:42;3.87;;;1.00;;
12232;SDS011;6179;51.748;8.728;2023-07-31T10:57:47;9.20;;;1.43;;
12232;SDS011;6179;51.748;8.728;2023-07-31T11:03:49;3.30;;;1.60;;
12232;SDS011;6179;51.748;8.728;2023-07-31T11:09:53;4.67;;;1.00;;
12232;SDS011;6179;51.748;8.728;2023-07-31T11:15:54;1.53;;;0.57;;
12232;SDS011;6179;51.748;8.728;2023-07-31T11:21:54;1.80;;;0.63;;
12232;SDS011;6179;51.748;8.728;2023-07-31T11:27:56;1.70;;;0.63;;
12232;SDS011;6179;51.748;8.728;2023-07-31T11:34:06;0.60;;;0.60;;
12232;SDS011;6179;51.748;8.728;2023-07-31T11:40:07;1.03;;;0.50;;
12232;SDS011;6179;51.748;8.728;2023-07-31T11:46:08;1.10;;;0.50;;
12232;SDS011;6179;51.748;8.728;2023-07-31T11:52:10;0.40;;;0.40;;
12232;SDS011;6179;51.748;8.728;2023-07-31T11:58:11;1.07;;;0.50;;
12232;SDS011;6179;51.748;8.728;2023-07-31T12:04:13;0.40;;;0.40;;
12232;SDS011;6179;51.748;8.728;2023-07-31T12:10:24;1.83;;;0.70;;
12232;SDS011;6179;51.748;8.728;2023-07-31T12:16:26;4.10;;;0.50;;
12232;SDS011;6179;51.748;8.728;2023-07-31T12:22:27;0.60;;;0.40;;
12232;SDS011;6179;51.748;8.728;2023-07-31T12:28:28;0.30;;;0.30;;
12232;SDS011;6179;51.748;8.728;2023-07-31T12:34:29;0.43;;;0.30;;
12232;SDS011;6179;51.748;8.728;2023-07-31T12:40:29;0.73;;;0.70;;
12232;SDS011;6179;51.748;8.728;2023-07-31T12:46:30;0.60;;;0.50;;
12232;SDS011;6179;51.748;8.728;2023-07-31T12:52:30;5.13;;;0.67;;
12232;SDS011;6179;51.748;8.728;2023-07-31T12:58:31;0.40;;;0.40;;
12232;SDS011;6179;51.748;8.728;2023-07-31T13:04:32;1.00;;;0.67;;
12232;SDS011;6179;51.748;8.728;2023-07-31T13:10:32;3.10;;;1.03;;
12232;SDS011;6179;51.748;8.728;2023-07-31T13:16:33;8.80;;;1.10;;
12232;SDS011;6179;51.748;8.728;2023-07-31T13:22:34;1.50;;;0.90;;
12232;SDS011;6179;51.748;8.728;2023-07-31T13:28:34;2.50;;;1.00;;
12232;SDS011;6179;51.748;8.728;2023-07-31T13:34:35;1.00;;;0.80;;
12232;SDS011;6179;51.748;8.728;2023-07-31T13:40:35;1.20;;;1.03;;
12232;SDS011;6179;51.748;8.728;2023-07-31T13:46:36;3.53;;;1.60;;
12232;SDS011;6179;51.748;8.728;2023-07-31T13:52:37;2.50;;;1.17;;
12232;SDS011;6179;51.748;8.728;2023-07-31T13:58:37;2.33;;;1.83;;
12232;SDS011;6179;51.748;8.728;2023-07-31T14:04:38;2.10;;;0.50;;
12232;SDS011;6179;51.748;8.728;2023-07-31T14:10:38;1.47;;;0.80;;
12232;SDS011;6179;51.748;8.728;2023-07-31T14:16:39;0.80;;;0.73;;
12232;SDS011;6179;51.748;8.728;2023-07-31T14:22:40;0.80;;;0.60;;
12232;SDS011;6179;51.748;8.728;2023-07-31T14:28:40;0.83;;;0.60;;
12232;SDS011;6179;51.748;8.728;2023-07-31T14:34:41;0.80;;;0.50;;
12232;SDS011;6179;51.748;8.728;2023-07-31T14:40:41;1.17;;;0.70;;
12232;SDS011;6179;51.748;8.728;2023-07-31T14:46:42;0.70;;;0.70;;
12232;SDS011;6179;51.748;8.728;2023-07-31T14:52:43;1.50;;;0.70;;
12232;SDS011;6179;51.748;8.728;2023-07-31T14:58:44;1.43;;;1.33;;
12232;SDS011;6179;51.748;8.728;2023-07-31T15:04:44;0.70;;;0.70;;
12232;SDS011;6179;51.748;8.728;2023-07-31T15:10:45;1.00;;;0.90;;
12232;SDS011;6179;51.748;8.728;2023-07-31T15:16:46;3.93;;;1.30;;
12232;SDS011;6179;51.748;8.728;2023-07-31T15:22:46;1.13;;;1.03;;
12232;SDS011;6179;51.748;8.728;2023-07-31T15:28:55;2.90;;;1.00;;
12232;SDS011;6179;51.748;8.728;2023-07-31T15:35:00;1.87;;;0.80;;
12232;SDS011;6179;51.748;8.728;2023-07-31T15:41:00;1.00;;;1.00;;
12232;SDS011;6179;51.748;8.728;2023-07-31T15:47:01;4.73;;;0.83;;
12232;SDS011;6179;51.748;8.728;2023-07-31T15:53:02;1.30;;;1.00;;
12232;SDS011;6179;51.748;8.728;2023-07-31T15:59:02;1.47;;;0.93;;
12232;SDS011;6179;51.748;8.728;2023-07-31T16:05:03;7.47;;;1.10;;
12232;SDS011;6179;51.748;8.728;2023-07-31T16:11:04;2.10;;;0.80;;
12232;SDS011;6179;51.748;8.728;2023-07-31T16:17:05;0.70;;;0.70;;
12232;SDS011;6179;51.748;8.728;2023-07-31T16:23:05;1.27;;;0.87;;
12232;SDS011;6179;51.748;8.728;2023-07-31T16:29:06;3.00;;;1.07;;
12232;SDS011;6179;51.748;8.728;2023-07-31T16:35:07;0.73;;;0.70;;
12232;SDS011;6179;51.748;8.728;2023-07-31T16:41:08;3.80;;;1.00;;
12232;SDS011;6179;51.748;8.728;2023-07-31T16:47:10;3.03;;;1.00;;
12232;SDS011;6179;51.748;8.728;2023-07-31T16:53:10;1.53;;;1.27;;
12232;SDS011;6179;51.748;8.728;2023-07-31T16:59:11;2.47;;;1.23;;
12232;SDS011;6179;51.748;8.728;2023-07-31T17:05:11;1.43;;;1.33;;
12232;SDS011;6179;51.748;8.728;2023-07-31T17:11:12;1.73;;;1.00;;
12232;SDS011;6179;51.748;8.728;2023-07-31T17:17:13;1.13;;;1.03;;
12232;SDS011;6179;51.748;8.728;2023-07-31T17:23:13;0.90;;;0.80;;
12232;SDS011;6179;51.748;8.728;2023-07-31T17:29:14;2.20;;;1.40;;
12232;SDS011;6179;51.748;8.728;2023-07-31T17:35:18;1.50;;;1.20;;
12232;SDS011;6179;51.748;8.728;2023-07-31T17:41:19;2.40;;;1.50;;
12232;SDS011;6179;51.748;8.728;2023-07-31T17:47:19;3.20;;;1.60;;
12232;SDS011;6179;51.748;8.728;2023-07-31T17:53:20;2.73;;;1.00;;
12232;SDS011;6179;51.748;8.728;2023-07-31T17:59:21;1.77;;;1.30;;
12232;SDS011;6179;51.748;8.728;2023-07-31T18:05:21;2.10;;;1.00;;
12232;SDS011;6179;51.748;8.728;2023-07-31T18:11:22;7.43;;;2.17;;
12232;SDS011;6179;51.748;8.728;2023-07-31T18:17:26;2.67;;;1.53;;
12232;SDS011;6179;51.748;8.728;2023-07-31T18:23:27;1.73;;;1.63;;
12232;SDS011;6179;51.748;8.728;2023-07-31T18:29:27;2.60;;;1.23;;
12232;SDS011;6179;51.748;8.728;2023-07-31T18:35:28;2.80;;;1.43;;
12232;SDS011;6179;51.748;8.728;2023-07-31T18:41:29;1.93;;;1.73;;
12232;SDS011;6179;51.748;8.728;2023-07-31T18:47:29;2.30;;;0.80;;
12232;SDS011;6179;51.748;8.728;2023-07-31T18:53:30;3.27;;;0.97;;
12232;SDS011;6179;51.748;8.728;2023-07-31T18:59:30;2.20;;;1.00;;
12232;SDS011;6179;51.748;8.728;2023-07-31T19:05:31;2.00;;;1.17;;
12232;SDS011;6179;51.748;8.728;2023-07-31T19:11:32;3.80;;;1.10;;
12232;SDS011;6179;51.748;8.728;2023-07-31T19:17:32;0.83;;;0.70;;
12232;SDS011;6179;51.748;8.728;2023-07-31T19:23:33;2.03;;;0.90;;
12232;SDS011;6179;51.748;8.728;2023-07-31T19:29:33;0.77;;;0.60;;
12232;SDS011;6179;51.748;8.728;2023-07-31T19:35:34;4.67;;;0.80;;
12232;SDS011;6179;51.748;8.728;2023-07-31T19:41:35;2.37;;;0.80;;
12232;SDS011;6179;51.748;8.728;2023-07-31T19:47:38;1.83;;;0.70;;
12232;SDS011;6179;51.748;8.728;2023-07-31T19:53:39;2.40;;;0.70;;
12232;SDS011;6179;51.748;8.728;2023-07-31T19:59:40;1.00;;;0.63;;
12232;SDS011;6179;51.748;8.728;2023-07-31T20:05:40;7.00;;;0.80;;
12232;SDS011;6179;51.748;8.728;2023-07-31T20:11:41;1.10;;;0.60;;
12232;SDS011;6179;51.748;8.728;2023-07-31T20:17:41;0.60;;;0.50;;
12232;SDS011;6179;51.748;8.728;2023-07-31T20:23:42;0.80;;;0.60;;
12232;SDS011;6179;51.748;8.728;2023-07-31T20:29:44;0.60;;;0.50;;
12232;SDS011;6179;51.748;8.728;2023-07-31T20:35:45;1.00;;;0.43;;
12232;SDS011;6179;51.748;8.728;2023-07-31T20:41:45;1.73;;;0.50;;
12232;SDS011;6179;51.748;8.728;2023-07-31T20:47:49;4.87;;;0.53;;
12232;SDS011;6179;51.748;8.728;2023-07-31T20:53:50;0.50;;;0.50;;
12232;SDS011;6179;51.748;8.728;2023-07-31T20:59:51;0.70;;;0.47;;
12232;SDS011;6179;51.748;8.728;2023-07-31T21:05:52;2.83;;;0.40;;
12232;SDS011;6179;51.748;8.728;2023-07-31T21:11:54;0.53;;;0.50;;
12232;SDS011;6179;51.748;8.728;2023-07-31T21:17:54;0.70;;;0.50;;
12232;SDS011;6179;51.748;8.728;2023-07-31T21:23:56;0.80;;;0.37;;
12232;SDS011;6179;51.748;8.728;2023-07-31T21:29:57;0.40;;;0.40;;
12232;SDS011;6179;51.748;8.728;2023-07-31T21:35:59;0.63;;;0.30;;
12232;SDS011;6179;51.748;8.728;2023-07-31T21:41:59;0.60;;;0.30;;
12232;SDS011;6179;51.748;8.728;2023-07-31T21:48:00;5.70;;;0.50;;
12232;SDS011;6179;51.748;8.728;2023-07-31T21:54:01;1.27;;;0.40;;
12232;SDS011;6179;51.748;8.728;2023-07-31T22:00:04;0.50;;;0.40;;
12232;SDS011;6179;51.748;8.728;2023-07-31T22:06:06;0.43;;;0.37;;
12232;SDS011;6179;51.748;8.728;2023-07-31T22:12:06;1.77;;;0.40;;
12232;SDS011;6179;51.748;8.728;2023-07-31T22:18:07;0.80;;;0.30;;
12232;SDS011;6179;51.748;8.728;2023-07-31T22:24:08;0.30;;;0.30;;
12232;SDS011;6179;51.748;8.728;2023-07-31T22:30:08;0.70;;;0.40;;
12232;SDS011;6179;51.748;8.728;2023-07-31T22:36:09;0.43;;;0.40;;
12232;SDS011;6179;51.748;8.728;2023-07-31T22:42:10;0.50;;;0.40;;
12232;SDS011;6179;51.748;8.728;2023-07-31T22:48:11;1.13;;;0.50;;
12232;SDS011;6179;51.748;8.728;2023-07-31T22:54:12;1.90;;;0.40;;
12232;SDS011;6179;51.748;8.728;2023-07-31T23:00:13;0.73;;;0.47;;
12232;SDS011;6179;51.748;8.728;2023-07-31T23:06:14;0.90;;;0.40;;
12232;SDS011;6179;51.748;8.728;2023-07-31T23:12:14;3.53;;;0.53;;
12232;SDS011;6179;51.748;8.728;2023-07-31T23:18:15;1.13;;;0.60;;
12232;SDS011;6179;51.748;8.728;2023-07-31T23:24:16;0.87;;;0.30;;
12232;SDS011;6179;51.748;8.728;2023-07-31T23:30:16;0.50;;;0.50;;
12232;SDS011;6179;51.748;8.728;2023-07-31T23:36:17;0.80;;;0.40;;
12232;SDS011;6179;51.748;8.728;2023-07-31T23:42:17;0.40;;;0.40;;
12232;SDS011;6179;51.748;8.728;2023-07-31T23:48:18;0.53;;;0.37;;
12232;SDS011;6179;51.748;8.728;2023-07-31T23:54:19;1.60;;;0.50;;
